Time;durP1;ratioP1;P1;durP2;ratioP2;P2;SDS_P1;SDS_P2;PMS_P1;PMS_P2;Temp;Humidity;BMP_temperature;BMP_pressure;BME280_temperature;BME280_humidity;BME280_pressure;Samples;Min_cycle;Max_cycle;Signal;HPM_P1;HPM_P2
2023/04/04 00:00:52;;;;;;;5.60;3.75;;;;;;;8.39;90.53;100310.47;4959512;28;20463;-88
2023/04/04 00:03:18;;;;;;;7.68;4.20;;;;;;;8.30;89.87;100316.84;4975399;28;20042;-89
2023/04/04 00:05:44;;;;;;;11.48;4.03;;;;;;;8.14;89.41;100308.09;4975662;28;20034;-89
2023/04/04 00:08:10;;;;;;;5.03;2.50;;;;;;;8.03;89.69;100295.69;4959588;28;20091;-90
2023/04/04 00:10:35;;;;;;;3.17;2.60;;;;;;;7.94;88.93;100290.09;4975647;28;20109;-88
2023/04/04 00:13:01;;;;;;;3.25;2.08;;;;;;;7.97;88.33;100300.28;4975534;28;20041;-88
2023/04/04 00:15:27;;;;;;;5.05;3.25;;;;;;;7.94;87.86;100302.97;4975683;28;20033;-89
2023/04/04 00:17:52;;;;;;;4.50;2.75;;;;;;;7.88;88.56;100290.38;4974939;28;20031;-89
2023/04/04 00:20:18;;;;;;;4.22;2.92;;;;;;;7.82;88.48;100295.78;4975468;28;20031;-89
2023/04/04 00:22:43;;;;;;;3.60;2.70;;;;;;;7.86;88.48;100317.91;4991725;28;20484;-89
2023/04/04 00:25:09;;;;;;;3.83;2.00;;;;;;;7.69;87.79;100301.47;4991708;28;20405;-88
2023/04/04 00:27:35;;;;;;;2.60;2.35;;;;;;;7.74;87.88;100304.66;4975411;28;20057;-88
2023/04/04 00:30:00;;;;;;;6.25;3.78;;;;;;;7.54;87.91;100284.06;4975690;28;20034;-89
2023/04/04 00:32:26;;;;;;;8.02;3.55;;;;;;;7.70;86.34;100315.16;4975226;28;20504;-89
2023/04/04 00:34:52;;;;;;;5.22;2.90;;;;;;;7.69;86.48;100316.06;4991187;28;20034;-88
2023/04/04 00:37:18;;;;;;;5.60;3.78;;;;;;;7.60;87.34;100307.00;4975171;28;20551;-88
2023/04/04 00:39:43;;;;;;;3.65;2.55;;;;;;;7.68;86.85;100328.13;4958838;28;20030;-88
2023/04/04 00:42:09;;;;;;;6.43;3.35;;;;;;;7.55;86.86;100314.06;4958598;28;20026;-89
2023/04/04 00:44:35;;;;;;;4.15;2.90;;;;;;;7.54;85.31;100325.25;4974906;28;20030;-88
2023/04/04 00:47:01;;;;;;;2.42;1.30;;;;;;;7.57;86.22;100317.44;4974785;28;20026;-89
2023/04/04 00:49:26;;;;;;;3.33;1.90;;;;;;;7.11;86.17;100262.69;4974883;28;20034;-88
2023/04/04 00:51:53;;;;;;;2.72;1.77;;;;;;;7.33;87.00;100308.94;4990981;28;20033;-88
2023/04/04 00:54:19;;;;;;;4.80;2.35;;;;;;;7.42;87.32;100318.03;4990690;28;20030;-87
2023/04/04 00:56:44;;;;;;;3.50;2.92;;;;;;;7.44;88.06;100321.38;4958432;28;20034;-88
2023/04/04 00:59:09;;;;;;;4.38;2.95;;;;;;;7.44;88.26;100305.94;4958374;28;20419;-87
2023/04/04 01:01:35;;;;;;;2.92;1.92;;;;;;;7.40;89.24;100297.53;4957977;28;20085;-87
2023/04/04 01:06:36;;;;;;;5.57;2.05;;;;;;;7.29;88.47;100304.00;5466603;22;20024;-89
2023/04/04 01:09:01;;;;;;;4.88;2.80;;;;;;;7.31;89.16;100308.19;5018251;23;20057;-89
2023/04/04 01:11:27;;;;;;;3.10;2.35;;;;;;;7.08;89.65;100259.38;5010378;28;20517;-89
2023/04/04 01:13:52;;;;;;;4.18;2.35;;;;;;;7.34;90.22;100294.34;4994013;28;20064;-89
2023/04/04 01:16:18;;;;;;;3.63;2.03;;;;;;;7.33;89.58;100297.81;4993925;28;20053;-89
2023/04/04 01:18:43;;;;;;;3.58;2.20;;;;;;;7.38;90.20;100311.34;4993763;28;20490;-88
2023/04/04 01:21:10;;;;;;;2.05;1.30;;;;;;;7.29;89.97;100304.84;4993771;28;20034;-88
2023/04/04 01:23:45;;;;;;;1.83;1.67;;;;;;;7.24;90.08;100309.31;4993907;28;20068;-88
2023/04/04 01:26:11;;;;;;;5.57;1.55;;;;;;;7.09;89.83;100289.38;5011367;28;20038;-89
2023/04/04 01:28:36;;;;;;;1.95;1.80;;;;;;;7.04;89.71;100302.41;5010190;28;20514;-88
2023/04/04 01:31:02;;;;;;;3.38;2.38;;;;;;;6.89;90.33;100285.00;4993806;28;20091;-89
2023/04/04 01:33:28;;;;;;;3.92;2.47;;;;;;;6.92;90.49;100295.16;4993745;28;20518;-88
2023/04/04 01:36:09;;;;;;;1.88;1.38;;;;;;;6.87;90.93;100273.94;4993544;28;20123;-89
2023/04/04 01:38:37;;;;;;;3.30;2.38;;;;;;;6.94;89.99;100284.81;5011331;28;20041;-90
2023/04/04 01:41:06;;;;;;;2.83;1.98;;;;;;;6.70;89.79;100253.19;5010659;28;20117;-88
2023/04/04 01:43:32;;;;;;;2.83;1.55;;;;;;;6.90;90.63;100271.25;5000175;28;20037;-89
2023/04/04 01:45:58;;;;;;;2.03;1.48;;;;;;;6.92;90.55;100282.31;5000220;28;20030;-89
2023/04/04 01:48:24;;;;;;;3.00;1.70;;;;;;;6.69;90.66;100241.25;5000305;28;20030;-89
2023/04/04 01:50:50;;;;;;;4.80;2.35;;;;;;;6.82;90.39;100265.56;5016233;28;20057;-89
2023/04/04 01:53:15;;;;;;;3.25;2.08;;;;;;;6.85;90.65;100270.59;5000499;28;20029;-88
2023/04/04 01:55:41;;;;;;;2.88;1.27;;;;;;;6.85;90.50;100260.31;5016580;28;20295;-89
2023/04/04 01:58:06;;;;;;;15.70;2.38;;;;;;;6.85;90.52;100268.84;5032854;28;20026;-89
2023/04/04 02:00:32;;;;;;;1.45;1.33;;;;;;;6.72;90.05;100248.84;5000200;28;20037;-89
2023/04/04 02:02:59;;;;;;;1.75;1.25;;;;;;;6.56;90.75;100212.59;5000027;28;20029;-89
2023/04/04 02:05:24;;;;;;;3.13;1.02;;;;;;;6.88;90.35;100260.16;5032424;28;20088;-89
2023/04/04 02:07:50;;;;;;;3.40;1.85;;;;;;;6.84;89.89;100256.91;5016181;28;20089;-89
2023/04/04 02:10:16;;;;;;;1.77;1.40;;;;;;;6.74;89.55;100259.88;4999753;28;20041;-88
2023/04/04 02:12:42;;;;;;;3.50;1.50;;;;;;;6.73;90.46;100260.78;5000305;28;20036;-89
2023/04/04 02:15:08;;;;;;;0.80;0.80;;;;;;;6.73;90.07;100250.50;5016427;28;20376;-90
2023/04/04 02:17:36;;;;;;;1.35;1.20;;;;;;;6.78;89.96;100248.56;4983814;28;20540;-88
2023/04/04 02:20:02;;;;;;;2.53;1.75;;;;;;;6.81;90.30;100261.31;4999937;28;20029;-89
2023/04/04 02:22:28;;;;;;;3.17;2.60;;;;;;;6.83;90.06;100272.38;4999705;28;20557;-88
2023/04/04 02:24:53;;;;;;;1.80;1.35;;;;;;;6.84;90.35;100262.03;4999935;28;20034;-89
2023/04/04 02:27:19;;;;;;;2.00;1.10;;;;;;;6.83;89.95;100257.78;5016047;28;20022;-88
2023/04/04 02:29:44;;;;;;;2.42;1.70;;;;;;;6.78;89.54;100251.16;4999864;28;20034;-89
2023/04/04 02:32:10;;;;;;;4.53;1.17;;;;;;;6.69;90.04;100248.97;4999817;28;20506;-88
2023/04/04 02:34:36;;;;;;;2.22;1.33;;;;;;;6.75;90.27;100254.69;5015985;28;20034;-88
2023/04/04 02:37:02;;;;;;;2.63;2.05;;;;;;;6.69;89.79;100249.78;5016317;28;20037;-90
2023/04/04 02:39:28;;;;;;;1.70;1.33;;;;;;;6.60;89.96;100229.59;5016108;28;20026;-90
2023/04/04 02:41:53;;;;;;;0.77;0.77;;;;;;;6.81;89.53;100262.16;4999743;28;20088;-89
2023/04/04 02:44:19;;;;;;;3.38;1.10;;;;;;;6.77;89.26;100257.19;4999894;28;20083;-89
2023/04/04 02:46:44;;;;;;;1.75;1.23;;;;;;;6.83;89.38;100269.81;5016148;28;20037;-87
2023/04/04 02:49:11;;;;;;;1.70;1.13;;;;;;;6.79;89.03;100260.56;4999637;28;20069;-89
2023/04/04 02:51:36;;;;;;;2.40;1.63;;;;;;;6.80;89.44;100257.09;5016154;28;20084;-89
2023/04/04 02:54:02;;;;;;;1.40;1.25;;;;;;;6.84;89.64;100264.59;5013737;28;20441;-90
2023/04/04 02:56:28;;;;;;;8.10;1.95;;;;;;;6.88;89.34;100268.75;4996899;28;20030;-89
2023/04/04 02:58:53;;;;;;;1.65;1.27;;;;;;;6.59;88.91;100236.47;5012870;28;20037;-89
2023/04/04 03:01:19;;;;;;;6.00;2.05;;;;;;;6.67;89.05;100255.88;4996230;28;20105;-89
2023/04/04 03:03:45;;;;;;;2.67;1.75;;;;;;;6.71;88.85;100267.72;4996398;28;20037;-89
2023/04/04 03:06:13;;;;;;;2.60;1.60;;;;;;;6.76;89.11;100292.34;4996042;28;20076;-88
2023/04/04 03:08:39;;;;;;;2.88;1.52;;;;;;;6.79;88.98;100292.25;5012336;28;20080;-87
2023/04/04 03:11:04;;;;;;;6.15;1.38;;;;;;;6.77;88.04;100295.75;5013604;28;20026;-87
2023/04/04 03:13:30;;;;;;;1.25;1.02;;;;;;;6.79;88.02;100297.38;4996494;28;20030;-89
2023/04/04 03:16:01;;;;;;;1.92;1.00;;;;;;;6.87;87.87;100320.22;4995961;28;20035;-89
2023/04/04 03:18:27;;;;;;;2.22;1.23;;;;;;;6.66;87.99;100282.47;5012570;28;20033;-89
2023/04/04 03:20:53;;;;;;;2.17;1.63;;;;;;;6.83;88.25;100308.38;4996341;28;20058;-88
2023/04/04 03:23:18;;;;;;;2.85;1.80;;;;;;;6.92;89.29;100312.34;4996168;28;20037;-89
2023/04/04 03:25:44;;;;;;;3.35;1.90;;;;;;;7.00;88.45;100333.47;4996443;28;20022;-88
2023/04/04 03:28:10;;;;;;;2.70;1.98;;;;;;;6.89;87.62;100321.00;4995858;28;20085;-87
2023/04/04 03:30:35;;;;;;;3.08;2.72;;;;;;;7.05;87.81;100342.66;4993405;28;20034;-91
2023/04/04 03:33:08;;;;;;;2.67;1.42;;;;;;;7.05;88.35;100355.50;5028671;28;20037;-87
2023/04/04 03:35:38;;;;;;;4.43;3.13;;;;;;;7.07;86.80;100352.88;5011815;28;20096;-86
2023/04/04 03:38:04;;;;;;;3.17;2.00;;;;;;;6.99;86.76;100357.50;5028169;28;20034;-87
2023/04/04 03:40:30;;;;;;;3.42;2.60;;;;;;;6.87;87.47;100343.34;5028060;28;20457;-85
2023/04/04 03:42:55;;;;;;;1.48;1.35;;;;;;;6.92;87.63;100344.03;5027723;28;20048;-86
2023/04/04 03:45:21;;;;;;;1.05;0.98;;;;;;;7.08;88.06;100365.72;5010953;28;20057;-85
2023/04/04 03:47:47;;;;;;;1.48;1.38;;;;;;;7.06;88.65;100361.50;5011487;28;20037;-86
2023/04/04 03:50:12;;;;;;;8.63;3.50;;;;;;;7.06;88.66;100354.59;5027714;28;20088;-88
2023/04/04 03:52:40;;;;;;;4.60;3.05;;;;;;;7.18;89.38;100364.44;5027837;28;20040;-87
2023/04/04 03:55:08;;;;;;;3.30;2.25;;;;;;;6.98;89.37;100341.25;5027321;28;20065;-85
2023/04/04 03:57:35;;;;;;;9.90;4.57;;;;;;;7.19;88.07;100367.84;5027724;28;20041;-85
2023/04/04 04:00:01;;;;;;;5.75;4.18;;;;;;;7.17;87.99;100360.19;5010190;28;20525;-85
2023/04/04 04:02:26;;;;;;;3.72;2.80;;;;;;;7.22;87.69;100372.03;5010305;28;20543;-85
2023/04/04 04:04:52;;;;;;;3.42;1.65;;;;;;;7.18;86.94;100367.03;5010093;28;20034;-85
2023/04/04 04:07:17;;;;;;;6.15;2.83;;;;;;;7.22;87.52;100372.88;5027425;28;20422;-85
2023/04/04 04:09:43;;;;;;;4.03;2.90;;;;;;;7.27;87.75;100385.53;5010960;28;20030;-86
2023/04/04 04:12:08;;;;;;;1.77;1.38;;;;;;;7.19;87.70;100384.13;5027702;28;20034;-89
2023/04/04 04:14:34;;;;;;;6.20;3.50;;;;;;;7.13;88.33;100368.91;5017415;28;20029;-88
2023/04/04 04:16:59;;;;;;;5.72;2.40;;;;;;;7.15;88.92;100377.41;5010189;28;20070;-86
2023/04/04 04:19:25;;;;;;;0.90;0.80;;;;;;;7.09;88.24;100351.09;5010538;28;20026;-84
2023/04/04 04:21:50;;;;;;;3.47;1.17;;;;;;;7.15;87.20;100381.72;5007585;28;20060;-83
2023/04/04 04:24:16;;;;;;;2.80;1.08;;;;;;;7.13;87.88;100384.34;4978720;28;20514;-81
2023/04/04 04:26:41;;;;;;;4.68;3.97;;;;;;;7.06;86.88;100388.06;5014657;28;20030;-83
2023/04/04 04:29:07;;;;;;;2.65;1.67;;;;;;;7.02;87.40;100391.66;4990438;28;20034;-83
2023/04/04 04:31:32;;;;;;;9.25;2.15;;;;;;;7.02;88.22;100391.66;5008945;28;20030;-86
2023/04/04 04:33:58;;;;;;;1.83;1.00;;;;;;;6.92;85.54;100382.59;5026705;28;20176;-88
2023/04/04 04:36:23;;;;;;;3.65;2.33;;;;;;;6.88;87.03;100373.31;5010457;28;20032;-89
2023/04/04 04:38:49;;;;;;;0.70;0.60;;;;;;;6.90;86.55;100381.84;5011803;28;20084;-89
2023/04/04 04:41:14;;;;;;;1.50;1.40;;;;;;;6.90;87.42;100384.41;5009555;28;20030;-85
2023/04/04 04:43:40;;;;;;;3.35;2.58;;;;;;;6.95;87.67;100400.47;5010219;28;20052;-91
2023/04/04 04:46:07;;;;;;;1.88;1.45;;;;;;;6.90;86.55;100402.41;5010880;28;20022;-89
2023/04/04 04:48:33;;;;;;;35.88;16.35;;;;;;;6.75;88.07;100390.94;4994376;28;20026;-88
2023/04/04 04:50:58;;;;;;;12.40;8.02;;;;;;;6.70;88.41;100372.28;5024528;28;20053;-83
2023/04/04 04:53:24;;;;;;;3.72;3.05;;;;;;;6.98;88.51;100415.81;5023147;28;20027;-93
2023/04/04 04:55:51;;;;;;;3.60;2.47;;;;;;;6.95;88.60;100404.78;4981157;28;20533;-92
2023/04/04 04:58:20;;;;;;;1.95;1.58;;;;;;;7.01;89.36;100422.56;4975458;28;20034;-92
2023/04/04 05:00:45;;;;;;;5.28;2.88;;;;;;;6.89;89.70;100390.44;4993813;28;20032;-89
2023/04/04 05:03:11;;;;;;;2.95;2.50;;;;;;;6.95;89.21;100408.19;4994149;28;20034;-86
2023/04/04 05:05:37;;;;;;;2.35;1.92;;;;;;;7.03;88.09;100421.63;5010150;28;20029;-88
2023/04/04 05:08:02;;;;;;;2.63;1.90;;;;;;;6.92;88.03;100407.50;4992960;28;20057;-88
2023/04/04 05:10:31;;;;;;;2.25;1.70;;;;;;;7.07;87.66;100430.88;5008447;28;20430;-87
2023/04/04 05:12:57;;;;;;;2.28;1.85;;;;;;;7.06;88.53;100418.91;5007756;28;20022;-93
2023/04/04 05:15:24;;;;;;;1.95;1.58;;;;;;;7.06;87.52;100423.22;4968670;28;20090;-87
2023/04/04 05:17:50;;;;;;;2.90;1.45;;;;;;;7.08;87.54;100412.00;5007802;28;20033;-85
2023/04/04 05:20:15;;;;;;;3.22;1.92;;;;;;;7.24;88.17;100437.13;5000594;28;20033;-84
2023/04/04 05:22:44;;;;;;;2.50;1.85;;;;;;;7.12;87.08;100405.84;5016085;28;20091;-89
2023/04/04 05:25:11;;;;;;;1.70;1.30;;;;;;;7.19;87.11;100440.72;5014259;28;20034;-87
2023/04/04 05:27:37;;;;;;;3.33;1.90;;;;;;;7.12;87.00;100429.00;4992593;28;20414;-92
2023/04/04 05:30:02;;;;;;;1.38;1.17;;;;;;;6.93;87.72;100397.13;5009072;28;20029;-85
2023/04/04 05:32:28;;;;;;;2.95;2.20;;;;;;;7.25;88.40;100438.81;5008254;28;20018;-84
2023/04/04 05:34:53;;;;;;;6.68;1.35;;;;;;;7.21;88.37;100438.09;5025687;28;20458;-88
2023/04/04 05:37:19;;;;;;;4.97;3.92;;;;;;;6.90;88.51;100374.94;5009653;28;20095;-88
2023/04/04 05:39:44;;;;;;;2.05;1.85;;;;;;;7.23;88.23;100431.16;5010805;28;20037;-89
2023/04/04 05:42:10;;;;;;;2.88;2.20;;;;;;;7.22;88.64;100431.22;5008409;28;20474;-85
2023/04/04 05:44:36;;;;;;;2.20;1.25;;;;;;;7.12;88.00;100410.97;5028364;28;20107;-83
2023/04/04 05:47:02;;;;;;;2.17;1.35;;;;;;;7.12;88.40;100405.00;5045354;28;20032;-94
2023/04/04 05:49:27;;;;;;;2.60;1.73;;;;;;;7.37;88.55;100439.16;5018598;28;20109;-86
2023/04/04 05:51:55;;;;;;;2.22;1.55;;;;;;;7.43;87.50;100438.09;4989260;28;20026;-88
2023/04/04 05:54:21;;;;;;;1.50;1.20;;;;;;;7.41;87.35;100450.19;5022142;28;20038;-88
2023/04/04 05:56:47;;;;;;;2.45;1.98;;;;;;;7.42;87.21;100444.16;5007187;28;20025;-94
2023/04/04 05:59:12;;;;;;;4.93;2.67;;;;;;;7.21;87.05;100426.97;5008058;28;20093;-88
2023/04/04 06:01:39;;;;;;;1.92;1.48;;;;;;;7.31;87.76;100439.41;5012294;28;20033;-94
2023/04/04 06:04:05;;;;;;;1.67;1.55;;;;;;;7.27;86.96;100429.28;5019194;28;20666;-87
2023/04/04 06:06:31;;;;;;;2.25;1.73;;;;;;;7.15;87.93;100413.44;5013027;28;20099;-87
2023/04/04 06:08:56;;;;;;;1.42;1.15;;;;;;;7.16;86.68;100415.09;4971647;28;20076;-87
2023/04/04 06:11:22;;;;;;;2.90;2.28;;;;;;;7.31;86.45;100439.41;5006192;28;20561;-85
2023/04/04 06:13:48;;;;;;;4.40;1.88;;;;;;;7.16;87.62;100414.25;5007284;28;20042;-85
2023/04/04 06:16:13;;;;;;;1.48;1.00;;;;;;;7.35;87.67;100425.53;5008369;28;20121;-84
2023/04/04 06:18:38;;;;;;;1.55;1.02;;;;;;;7.29;87.73;100418.06;5023631;28;20154;-86
2023/04/04 06:21:04;;;;;;;1.90;1.23;;;;;;;7.35;86.15;100445.28;4991295;28;20029;-88
2023/04/04 06:23:30;;;;;;;2.25;2.00;;;;;;;7.18;86.72;100422.78;5007234;28;20483;-82
2023/04/04 06:25:55;;;;;;;2.35;1.30;;;;;;;7.26;86.19;100456.75;5006023;28;20030;-82
2023/04/04 06:28:21;;;;;;;1.67;1.00;;;;;;;7.31;86.19;100449.72;5021776;28;20030;-87
2023/04/04 06:30:47;;;;;;;1.17;1.08;;;;;;;7.32;86.17;100453.97;5023140;28;20041;-86
2023/04/04 06:33:12;;;;;;;0.65;0.65;;;;;;;7.29;86.41;100437.81;5006420;28;20023;-83
2023/04/04 06:35:38;;;;;;;2.10;1.80;;;;;;;7.33;87.01;100447.06;5024229;28;20120;-86
2023/04/04 06:38:04;;;;;;;2.08;1.30;;;;;;;7.19;87.10;100438.16;5003415;28;20415;-91
2023/04/04 06:40:30;;;;;;;1.08;0.95;;;;;;;7.01;86.78;100420.84;4983022;28;20034;-91
2023/04/04 06:42:57;;;;;;;2.90;1.60;;;;;;;7.18;86.45;100463.94;5005123;28;20474;-91
2023/04/04 06:45:23;;;;;;;1.30;1.23;;;;;;;7.19;87.18;100461.31;5010292;28;20132;-91
2023/04/04 06:47:50;;;;;;;2.42;1.42;;;;;;;7.18;86.86;100469.09;5013546;28;20491;-87
2023/04/04 06:50:16;;;;;;;4.18;2.20;;;;;;;6.94;86.93;100433.97;5007330;28;20161;-88
2023/04/04 06:52:42;;;;;;;1.52;0.80;;;;;;;7.11;86.25;100465.91;5004645;28;20474;-88
2023/04/04 06:55:08;;;;;;;3.35;1.40;;;;;;;7.16;86.31;100461.41;5021281;28;20034;-87
2023/04/04 06:57:33;;;;;;;1.38;0.85;;;;;;;7.07;86.49;100459.19;5008386;28;20030;-92
2023/04/04 06:59:59;;;;;;;1.60;1.00;;;;;;;7.15;87.73;100470.03;5010450;28;20034;-92
2023/04/04 07:02:25;;;;;;;2.08;1.30;;;;;;;7.05;85.56;100473.00;5011209;28;20033;-88
2023/04/04 07:04:50;;;;;;;1.23;0.88;;;;;;;7.00;86.43;100468.03;4993881;28;20080;-88
2023/04/04 07:07:16;;;;;;;1.45;0.85;;;;;;;7.18;87.98;100477.66;5000151;28;20061;-87
2023/04/04 07:09:42;;;;;;;1.95;1.70;;;;;;;7.19;86.73;100483.63;5021642;28;20038;-86
2023/04/04 07:12:07;;;;;;;3.10;1.13;;;;;;;7.18;86.72;100498.22;5016434;28;20408;-83
2023/04/04 07:14:33;;;;;;;0.95;0.60;;;;;;;7.17;85.72;100486.22;5006175;28;20034;-88
2023/04/04 07:16:58;;;;;;;0.60;0.60;;;;;;;7.13;86.28;100489.00;5000972;28;20029;-86
2023/04/04 07:19:27;;;;;;;19.80;14.02;;;;;;;7.05;86.20;100468.69;5019811;28;20030;-88
2023/04/04 07:21:53;;;;;;;3.90;1.65;;;;;;;7.25;87.55;100474.84;5004991;28;20029;-86
2023/04/04 07:24:19;;;;;;;21.55;14.55;;;;;;;7.35;86.63;100481.31;5000419;28;20107;-86
2023/04/04 07:26:44;;;;;;;1.63;1.30;;;;;;;7.36;85.82;100488.13;5012923;28;20494;-92
2023/04/04 07:29:10;;;;;;;3.30;1.05;;;;;;;7.40;86.67;100487.13;5028403;28;20033;-91
2023/04/04 07:31:35;;;;;;;4.90;1.23;;;;;;;7.55;86.37;100509.69;5018249;28;20022;-90
2023/04/04 07:34:20;;;;;;;2.40;1.63;;;;;;;7.49;86.15;100507.38;5010127;28;20029;-88
2023/04/04 07:36:45;;;;;;;1.25;0.93;;;;;;;7.46;86.55;100504.91;5019589;28;20037;-88
2023/04/04 07:39:11;;;;;;;1.08;0.80;;;;;;;7.48;86.56;100518.56;5005693;28;20031;-89
2023/04/04 07:41:36;;;;;;;8.35;6.25;;;;;;;7.36;86.32;100512.13;5009431;28;20037;-87
2023/04/04 07:44:02;;;;;;;3.90;2.47;;;;;;;7.57;86.50;100515.66;4993290;28;20530;-86
2023/04/04 07:46:27;;;;;;;2.95;2.10;;;;;;;7.63;85.82;100528.28;5013758;28;20371;-86
2023/04/04 07:48:52;;;;;;;2.67;2.30;;;;;;;7.51;84.74;100522.75;5001197;28;20041;-83
2023/04/04 07:51:26;;;;;;;1.15;1.05;;;;;;;7.52;85.08;100527.84;5025186;28;20460;-84
2023/04/04 07:53:52;;;;;;;2.45;2.25;;;;;;;7.54;83.81;100543.22;4994748;28;20029;-83
2023/04/04 07:56:18;;;;;;;3.65;1.95;;;;;;;7.47;84.72;100528.03;5016105;28;20029;-84
2023/04/04 07:58:43;;;;;;;2.78;2.10;;;;;;;7.53;85.34;100534.66;4997674;28;20029;-81
2023/04/04 08:01:09;;;;;;;4.78;3.33;;;;;;;7.48;84.23;100539.16;5011163;28;20026;-89
2023/04/04 08:03:35;;;;;;;5.00;3.67;;;;;;;7.51;84.87;100533.06;5006445;28;20037;-86
2023/04/04 08:06:00;;;;;;;3.50;2.72;;;;;;;7.44;85.29;100524.72;5000925;28;20034;-93
2023/04/04 08:08:26;;;;;;;3.92;2.38;;;;;;;7.49;85.67;100551.13;5025530;28;20057;-87
2023/04/04 08:10:51;;;;;;;1.23;1.08;;;;;;;7.14;86.53;100499.22;5010206;28;20034;-85
2023/04/04 08:13:17;;;;;;;1.35;0.75;;;;;;;7.49;85.76;100551.13;5009985;28;20534;-85
2023/04/04 08:15:42;;;;;;;3.08;0.98;;;;;;;7.46;84.33;100535.78;5009249;28;20064;-86
2023/04/04 08:18:08;;;;;;;7.18;1.65;;;;;;;7.39;83.13;100539.50;4997648;28;20037;-86
2023/04/04 08:20:34;;;;;;;4.28;0.73;;;;;;;7.38;84.38;100538.66;5019888;28;20486;-88
2023/04/04 08:23:00;;;;;;;0.47;0.35;;;;;;;7.20;83.76;100511.03;5004030;28;20329;-86
2023/04/04 08:25:26;;;;;;;0.85;0.63;;;;;;;7.58;84.41;100568.81;5024391;28;20022;-93
2023/04/04 08:27:51;;;;;;;2.47;1.23;;;;;;;7.46;84.69;100528.06;5006960;28;20499;-87
2023/04/04 08:30:17;;;;;;;1.73;1.10;;;;;;;7.64;84.31;100553.13;5001333;28;20026;-91
2023/04/04 08:32:44;;;;;;;0.52;0.52;;;;;;;7.54;83.73;100546.63;5006216;28;20052;-87
2023/04/04 08:35:10;;;;;;;1.20;1.10;;;;;;;7.68;84.65;100557.28;5009916;28;20022;-90
2023/04/04 08:37:36;;;;;;;2.50;1.20;;;;;;;7.82;86.37;100574.75;5006566;28;20113;-93
2023/04/04 08:40:05;;;;;;;1.33;0.95;;;;;;;7.69;85.93;100583.84;4994692;28;20037;-87
2023/04/04 08:42:32;;;;;;;1.63;1.40;;;;;;;7.85;84.54;100581.53;5034692;28;20032;-90
2023/04/04 08:44:59;;;;;;;1.40;1.02;;;;;;;7.78;85.78;100565.50;5027465;28;20037;-94
2023/04/04 08:47:25;;;;;;;1.70;1.17;;;;;;;7.87;85.98;100577.19;4974449;28;20034;-84
2023/04/04 08:49:51;;;;;;;1.77;1.38;;;;;;;7.82;85.97;100563.63;5001316;28;20030;-83
2023/04/04 08:52:18;;;;;;;1.90;1.30;;;;;;;7.91;85.48;100576.16;5006196;28;20394;-91
2023/04/04 08:54:43;;;;;;;3.78;2.72;;;;;;;7.99;86.42;100587.84;4997975;28;20042;-88
2023/04/04 08:57:09;;;;;;;1.17;1.08;;;;;;;7.96;85.84;100592.25;4992477;28;20065;-87
2023/04/04 08:59:34;;;;;;;4.57;1.60;;;;;;;7.97;85.51;100588.81;5028041;28;20042;-85
2023/04/04 09:02:09;;;;;;;1.13;0.95;;;;;;;8.00;85.86;100593.81;5008734;28;20572;-96
2023/04/04 09:04:35;;;;;;;1.70;1.35;;;;;;;7.85;85.66;100579.78;5020409;28;20030;-89
2023/04/04 09:07:04;;;;;;;1.00;0.85;;;;;;;7.94;87.03;100594.88;5013804;28;20033;-92
2023/04/04 09:09:31;;;;;;;1.52;1.13;;;;;;;7.92;85.31;100601.00;5023919;28;20026;-91
2023/04/04 09:11:56;;;;;;;2.25;0.70;;;;;;;7.77;85.94;100581.84;5009110;28;20505;-89
2023/04/04 09:14:21;;;;;;;5.25;3.13;;;;;;;7.97;86.52;100604.25;5021482;28;20026;-90
2023/04/04 09:16:47;;;;;;;2.67;1.50;;;;;;;7.98;86.20;100608.50;5003001;28;20038;-90
2023/04/04 09:19:12;;;;;;;0.85;0.80;;;;;;;7.70;85.53;100555.47;5011976;28;20037;-89
2023/04/04 09:21:38;;;;;;;1.85;1.23;;;;;;;7.94;85.67;100588.91;5023538;28;20033;-84
2023/04/04 09:24:04;;;;;;;1.00;0.85;;;;;;;8.00;84.65;100604.13;5020668;28;20037;-90
2023/04/04 09:26:50;;;;;;;2.60;1.00;;;;;;;7.95;85.84;100594.00;5019516;28;20033;-90
2023/04/04 09:29:21;;;;;;;2.13;1.45;;;;;;;8.04;85.99;100605.69;5003312;28;20411;-93
2023/04/04 09:31:48;;;;;;;1.25;0.85;;;;;;;7.95;86.39;100600.88;5034185;28;20022;-93
2023/04/04 09:34:17;;;;;;;0.85;0.82;;;;;;;7.90;86.46;100602.81;5010121;28;20038;-85
2023/04/04 09:36:43;;;;;;;2.25;1.73;;;;;;;7.79;86.33;100612.69;5020777;28;20030;-91
2023/04/04 09:39:09;;;;;;;1.30;0.93;;;;;;;7.81;86.01;100614.28;5021346;28;20129;-88
2023/04/04 09:41:38;;;;;;;1.40;0.98;;;;;;;7.82;87.06;100612.56;5008324;28;20576;-89
2023/04/04 09:44:04;;;;;;;1.52;0.90;;;;;;;7.90;85.65;100618.25;5024385;28;20026;-89
2023/04/04 09:46:30;;;;;;;2.47;1.33;;;;;;;7.91;85.96;100623.34;5011391;28;20551;-85
2023/04/04 09:48:57;;;;;;;1.63;0.93;;;;;;;8.04;86.24;100628.88;5024429;28;20030;-84
2023/04/04 09:51:22;;;;;;;3.17;2.22;;;;;;;8.11;86.37;100625.16;5023061;28;20602;-87
2023/04/04 09:53:48;;;;;;;1.38;1.00;;;;;;;8.08;85.99;100615.00;5035792;28;20030;-87
2023/04/04 09:56:13;;;;;;;6.93;1.30;;;;;;;8.09;87.20;100613.25;4995985;28;20491;-87
2023/04/04 09:58:39;;;;;;;0.82;0.63;;;;;;;8.19;85.45;100615.41;5019411;28;20467;-87
2023/04/04 10:01:08;;;;;;;3.50;1.00;;;;;;;8.16;83.56;100615.53;5022866;28;20035;-92
2023/04/04 10:03:35;;;;;;;1.58;1.48;;;;;;;8.19;84.66;100610.25;5006203;28;20499;-84
2023/04/04 10:06:07;;;;;;;0.70;0.70;;;;;;;8.31;84.62;100620.06;5001920;28;20424;-87
2023/04/04 10:08:32;;;;;;;1.43;1.10;;;;;;;8.28;84.23;100615.03;5007803;28;20102;-86
2023/04/04 10:10:59;;;;;;;10.48;8.60;;;;;;;8.36;85.26;100626.81;5009801;28;20579;-87
2023/04/04 10:13:29;;;;;;;4.85;3.70;;;;;;;8.37;84.34;100628.50;5008665;28;20033;-87
2023/04/04 10:15:56;;;;;;;3.35;1.95;;;;;;;8.26;84.36;100609.13;5026369;28;20041;-88
2023/04/04 10:18:25;;;;;;;3.05;2.08;;;;;;;8.28;83.60;100630.50;5009191;28;20025;-86
2023/04/04 10:20:51;;;;;;;1.33;0.90;;;;;;;8.25;84.23;100615.16;5025461;28;20106;-81
2023/04/04 10:23:17;;;;;;;1.58;1.23;;;;;;;8.44;83.31;100642.81;5007128;28;20059;-85
2023/04/04 10:25:43;;;;;;;3.08;1.92;;;;;;;8.38;84.77;100623.28;5008285;28;20133;-84
2023/04/04 10:28:09;;;;;;;1.23;0.95;;;;;;;8.45;84.17;100632.44;5016597;28;20031;-86
2023/04/04 10:30:43;;;;;;;1.35;0.80;;;;;;;8.40;83.53;100629.22;5017149;28;20034;-85
2023/04/04 10:33:14;;;;;;;2.30;1.23;;;;;;;8.48;83.02;100634.91;5021186;28;20033;-85
2023/04/04 10:35:40;;;;;;;4.10;2.47;;;;;;;8.51;84.15;100631.34;4993116;28;20077;-85
2023/04/04 10:38:07;;;;;;;1.98;1.73;;;;;;;8.67;83.47;100637.59;5005162;28;20030;-92
2023/04/04 10:40:37;;;;;;;1.75;0.82;;;;;;;8.79;82.85;100634.50;5008660;28;20053;-91
2023/04/04 10:43:03;;;;;;;0.65;0.50;;;;;;;8.84;81.28;100636.88;5020142;28;20037;-88
2023/04/04 10:45:30;;;;;;;2.22;1.67;;;;;;;8.97;81.52;100644.97;5018163;28;20025;-88
2023/04/04 10:47:56;;;;;;;2.40;1.13;;;;;;;9.05;82.97;100643.72;5011306;28;20030;-88
2023/04/04 10:50:21;;;;;;;0.75;0.70;;;;;;;9.04;79.97;100646.34;5007662;28;20045;-86
2023/04/04 10:52:47;;;;;;;4.80;2.70;;;;;;;9.10;81.47;100652.09;5018350;28;20030;-92
2023/04/04 10:55:13;;;;;;;5.57;3.55;;;;;;;8.86;80.77;100617.88;5020784;28;20027;-84
2023/04/04 10:57:42;;;;;;;2.10;1.35;;;;;;;9.06;81.76;100654.91;5007664;28;20065;-85
2023/04/04 11:00:10;;;;;;;1.05;0.88;;;;;;;9.08;80.51;100664.25;4998719;28;20022;-89
2023/04/04 11:02:45;;;;;;;1.17;0.60;;;;;;;9.13;79.76;100666.63;5003762;28;20029;-85
2023/04/04 11:05:33;;;;;;;0.70;0.60;;;;;;;9.05;81.58;100653.22;5023752;28;20034;-86
2023/04/04 11:08:03;;;;;;;1.75;0.93;;;;;;;8.95;79.88;100651.91;5008749;28;20046;-86
2023/04/04 11:10:29;;;;;;;1.25;1.15;;;;;;;8.98;80.73;100662.13;5009156;28;20034;-85
2023/04/04 11:12:57;;;;;;;20.25;10.85;;;;;;;8.80;80.71;100661.97;5006766;28;20555;-86
2023/04/04 11:15:24;;;;;;;16.83;10.05;;;;;;;8.74;81.73;100662.19;5007442;28;20423;-89
2023/04/04 11:18:05;;;;;;;3.63;2.25;;;;;;;8.82;81.31;100669.63;5003000;28;20030;-94
2023/04/04 11:20:32;;;;;;;0.50;0.50;;;;;;;8.86;80.67;100663.47;5025709;28;20034;-91
2023/04/04 11:23:25;;;;;;;0.95;0.77;;;;;;;8.85;81.11;100666.94;5039114;28;20160;-86
2023/04/04 11:25:52;;;;;;;11.57;1.10;;;;;;;8.91;81.70;100670.09;4996810;28;20072;-84
2023/04/04 11:28:24;;;;;;;0.70;0.52;;;;;;;8.94;79.69;100683.75;4993729;28;20942;-84
2023/04/04 11:31:11;;;;;;;0.73;0.65;;;;;;;8.71;79.31;100638.28;5009002;28;20095;-84
2023/04/04 11:34:05;;;;;;;0.40;0.40;;;;;;;8.89;79.24;100668.50;5020996;28;20030;-84